Time;durP1;ratioP1;P1;durP2;ratioP2;P2;SDS_P1;SDS_P2;PMS_P1;PMS_P2;Temp;Humidity;BMP_temperature;BMP_pressure;BME280_temperature;BME280_humidity;BME280_pressure;Samples;Min_cycle;Max_cycle;Signal;HPM_P1;HPM_P2
2022/08/21 00:00:24;;;;;;;4.43;1.30;;;25.90;99.90;;;;;;4207617;28;20135;-69
2022/08/21 00:02:32;;;;;;;3.97;1.80;;;25.90;99.90;;;;;;4224617;28;20046;-69
2022/08/21 00:04:41;;;;;;;3.92;1.70;;;25.90;99.90;;;;;;4207161;28;20828;-71
2022/08/21 00:07:00;;;;;;;3.60;1.60;;;25.80;99.90;;;;;;4206472;28;20158;-68
2022/08/21 00:09:06;;;;;;;3.63;1.50;;;25.90;99.90;;;;;;4202030;28;20059;-69
2022/08/21 00:11:11;;;;;;;3.05;1.30;;;25.90;99.90;;;;;;4202153;28;20139;-69
2022/08/21 00:13:17;;;;;;;3.00;1.50;;;25.90;99.90;;;;;;4208892;28;20743;-69
2022/08/21 00:15:25;;;;;;;3.55;1.90;;;25.90;99.90;;;;;;4189406;28;20590;-68
2022/08/21 00:17:30;;;;;;;6.38;1.70;;;26.00;99.90;;;;;;4207920;28;20048;-69
2022/08/21 00:19:35;;;;;;;2.80;1.63;;;26.00;99.90;;;;;;4207974;28;20040;-70
2022/08/21 00:21:40;;;;;;;3.65;1.85;;;26.10;99.90;;;;;;4208997;28;20453;-69
2022/08/21 00:23:49;;;;;;;3.10;1.77;;;26.10;99.90;;;;;;4208819;28;20051;-69
2022/08/21 00:25:58;;;;;;;3.85;2.72;;;26.20;99.90;;;;;;4208790;28;20586;-69
2022/08/21 00:28:06;;;;;;;3.08;2.00;;;26.20;99.90;;;;;;4205363;28;20042;-70
2022/08/21 00:30:15;;;;;;;2.78;1.48;;;26.20;99.90;;;;;;4208860;28;20060;-70
2022/08/21 00:32:26;;;;;;;3.58;1.77;;;26.20;99.90;;;;;;4207145;28;20086;-70
2022/08/21 00:34:31;;;;;;;5.10;1.98;;;26.20;99.90;;;;;;4208790;28;20051;-70
2022/08/21 00:36:39;;;;;;;4.30;1.88;;;26.30;99.90;;;;;;4207021;28;20032;-70
2022/08/21 00:38:44;;;;;;;27.70;2.97;;;26.30;99.90;;;;;;4204995;28;20755;-70
2022/08/21 00:40:51;;;;;;;46.35;4.45;;;26.30;99.90;;;;;;4208287;28;20121;-69
2022/08/21 00:43:01;;;;;;;30.02;3.30;;;26.40;99.90;;;;;;4207044;28;20130;-70
2022/08/21 00:45:07;;;;;;;14.52;2.28;;;26.40;99.90;;;;;;4208942;28;20085;-69
2022/08/21 00:47:13;;;;;;;9.40;2.08;;;26.40;99.90;;;;;;4208321;28;20047;-69
2022/08/21 00:49:22;;;;;;;5.00;1.95;;;26.40;99.90;;;;;;4207021;28;20042;-69
2022/08/21 00:51:33;;;;;;;5.53;1.98;;;26.40;99.90;;;;;;4207662;28;20188;-69
2022/08/21 00:53:42;;;;;;;3.08;1.95;;;26.50;99.90;;;;;;4207876;28;20028;-67
2022/08/21 00:55:55;;;;;;;3.40;2.00;;;26.50;99.90;;;;;;4205963;28;20052;-69
2022/08/21 00:58:00;;;;;;;4.35;2.38;;;26.60;99.90;;;;;;4207779;28;20576;-69
2022/08/21 01:00:07;;;;;;;9.00;2.58;;;26.60;99.90;;;;;;4207250;28;20052;-69
2022/08/21 01:02:12;;;;;;;75.90;7.85;;;26.60;99.90;;;;;;4211148;28;20040;-69
2022/08/21 01:04:20;;;;;;;42.55;6.68;;;26.60;99.90;;;;;;4209264;28;20040;-69
2022/08/21 01:06:28;;;;;;;21.20;4.68;;;26.60;99.90;;;;;;4208620;28;20102;-69
2022/08/21 01:08:41;;;;;;;11.23;3.03;;;26.80;99.90;;;;;;4211557;28;20040;-69
2022/08/21 01:10:49;;;;;;;12.23;3.10;;;26.80;99.90;;;;;;4209282;28;20070;-68
2022/08/21 01:13:06;;;;;;;10.60;3.25;;;26.80;99.90;;;;;;4211642;28;20128;-70
2022/08/21 01:15:15;;;;;;;76.13;12.18;;;26.90;99.90;;;;;;4209742;28;20047;-69
2022/08/21 01:17:21;;;;;;;44.88;6.78;;;26.90;99.90;;;;;;4210351;28;20541;-69
2022/08/21 01:19:26;;;;;;;28.33;5.25;;;26.90;99.90;;;;;;4208959;28;20130;-69
2022/08/21 01:21:33;;;;;;;14.35;3.90;;;26.90;99.90;;;;;;4210367;28;20348;-70
2022/08/21 01:23:39;;;;;;;68.60;10.85;;;26.90;99.90;;;;;;4209571;28;20080;-69
2022/08/21 01:25:44;;;;;;;13.63;3.85;;;27.00;99.90;;;;;;4210952;28;20056;-69
2022/08/21 01:27:52;;;;;;;14.23;4.50;;;27.00;99.90;;;;;;4212163;28;20051;-69
2022/08/21 01:30:18;;;;;;;7.85;3.33;;;27.00;99.90;;;;;;4211526;28;20159;-69
2022/08/21 01:32:23;;;;;;;9.23;3.28;;;27.00;99.90;;;;;;4211455;28;20052;-69
2022/08/21 01:34:32;;;;;;;6.82;3.33;;;27.00;99.90;;;;;;4211848;28;20093;-69
2022/08/21 01:36:36;;;;;;;4.80;3.15;;;27.00;99.90;;;;;;4211417;28;20040;-69
2022/08/21 01:38:42;;;;;;;7.25;3.92;;;27.00;99.90;;;;;;4211423;28;20065;-69
2022/08/21 01:40:51;;;;;;;38.58;5.85;;;27.00;99.90;;;;;;4211160;28;20044;-69
2022/08/21 01:43:00;;;;;;;17.83;5.03;;;27.10;99.90;;;;;;4211700;28;20040;-69
2022/08/21 01:45:06;;;;;;;25.80;6.07;;;27.10;99.90;;;;;;4211310;28;20048;-71
2022/08/21 01:47:11;;;;;;;11.25;4.10;;;27.10;99.90;;;;;;4211290;28;20672;-69
2022/08/21 01:49:18;;;;;;;45.47;7.85;;;27.10;99.90;;;;;;4193505;28;20048;-69
2022/08/21 01:51:26;;;;;;;12.82;4.10;;;27.20;99.90;;;;;;4208185;28;20536;-70
2022/08/21 01:53:35;;;;;;;7.53;3.55;;;27.20;99.90;;;;;;4210003;28;20138;-69
2022/08/21 01:55:39;;;;;;;6.35;3.63;;;27.20;99.90;;;;;;4209506;28;20044;-69
2022/08/21 01:57:45;;;;;;;6.15;3.33;;;27.20;99.90;;;;;;4207928;28;20052;-69
2022/08/21 01:59:51;;;;;;;7.70;3.65;;;27.30;99.90;;;;;;4210109;28;20036;-70
2022/08/21 02:01:57;;;;;;;8.85;4.75;;;27.30;99.90;;;;;;4208870;28;20040;-69
2022/08/21 02:04:02;;;;;;;8.65;4.07;;;27.40;99.90;;;;;;4225726;28;20073;-69
2022/08/21 02:06:12;;;;;;;8.27;3.78;;;27.50;99.90;;;;;;4209121;28;20063;-69
2022/08/21 02:08:17;;;;;;;8.57;3.63;;;27.60;99.90;;;;;;4225127;28;20397;-69
2022/08/21 02:10:24;;;;;;;7.00;4.13;;;27.60;99.90;;;;;;4209137;28;20051;-69
2022/08/21 02:12:32;;;;;;;9.15;4.20;;;27.70;99.90;;;;;;4208555;28;20093;-69
2022/08/21 02:14:36;;;;;;;10.38;4.47;;;27.70;99.90;;;;;;4224762;28;20063;-69
2022/08/21 02:16:43;;;;;;;6.95;3.65;;;27.70;99.90;;;;;;4225440;28;20067;-70
2022/08/21 02:18:53;;;;;;;7.15;3.80;;;27.80;99.90;;;;;;4208339;28;20040;-69
2022/08/21 02:20:58;;;;;;;8.43;4.03;;;27.90;99.90;;;;;;4209895;28;20486;-69
2022/08/21 02:23:03;;;;;;;7.63;4.22;;;28.00;99.90;;;;;;4208586;28;20094;-68
2022/08/21 02:25:10;;;;;;;31.42;6.07;;;28.00;99.90;;;;;;4202030;28;20040;-69
2022/08/21 02:27:15;;;;;;;402.90;50.28;;;27.90;99.90;;;;;;4206902;28;20044;-68
2022/08/21 02:29:29;;;;;;;44.35;9.10;;;27.80;99.90;;;;;;4208596;28;20131;-69
2022/08/21 02:31:38;;;;;;;20.08;5.20;;;27.70;99.90;;;;;;4173838;28;20695;-69
2022/08/21 02:33:43;;;;;;;127.95;17.00;;;27.70;99.90;;;;;;4210103;28;20040;-69
2022/08/21 02:35:48;;;;;;;33.17;7.32;;;27.70;99.90;;;;;;4209439;28;20040;-69
2022/08/21 02:38:00;;;;;;;11.48;4.22;;;27.70;99.90;;;;;;4209634;28;20071;-69
2022/08/21 02:40:05;;;;;;;9.50;3.65;;;27.70;99.90;;;;;;4208971;28;20039;-67
2022/08/21 02:42:10;;;;;;;37.85;7.55;;;27.80;99.90;;;;;;4208819;28;20032;-67
2022/08/21 02:44:17;;;;;;;20.27;4.93;;;27.80;99.90;;;;;;4209823;28;20040;-68
2022/08/21 02:46:25;;;;;;;28.58;7.20;;;27.80;99.90;;;;;;4208904;28;20044;-69
2022/08/21 02:48:30;;;;;;;16.35;4.70;;;27.90;99.90;;;;;;4207606;28;20059;-69
2022/08/21 02:50:42;;;;;;;8.25;4.47;;;27.80;99.90;;;;;;4209135;28;20052;-68
2022/08/21 02:52:46;;;;;;;8.38;3.60;;;27.80;99.90;;;;;;4207549;28;20526;-68
2022/08/21 02:54:57;;;;;;;10.60;3.80;;;27.80;99.90;;;;;;4207209;28;20071;-68
2022/08/21 02:57:02;;;;;;;5.75;3.63;;;27.80;99.90;;;;;;4208628;28;20032;-69
2022/08/21 02:59:10;;;;;;;6.78;3.53;;;27.80;99.90;;;;;;4189049;28;20095;-70
2022/08/21 03:01:15;;;;;;;8.60;3.58;;;27.90;99.90;;;;;;4210239;28;20048;-69
2022/08/21 03:03:21;;;;;;;7.93;3.42;;;27.80;99.90;;;;;;4210384;28;20039;-69
2022/08/21 03:05:27;;;;;;;9.27;4.18;;;27.80;99.90;;;;;;4209890;28;20724;-69
2022/08/21 03:07:31;;;;;;;6.50;3.67;;;27.80;99.90;;;;;;4208309;28;20083;-69
2022/08/21 03:09:40;;;;;;;6.50;3.50;;;27.80;99.90;;;;;;4213744;28;20394;-69
2022/08/21 03:11:58;;;;;;;8.25;3.58;;;27.90;99.90;;;;;;4211865;28;20491;-68
2022/08/21 03:14:02;;;;;;;7.72;3.88;;;27.80;99.90;;;;;;4213330;28;20594;-69
2022/08/21 03:16:11;;;;;;;9.85;3.65;;;27.70;99.90;;;;;;4213703;28;20040;-68
2022/08/21 03:18:16;;;;;;;10.57;3.28;;;27.70;99.90;;;;;;4212891;28;20079;-68
2022/08/21 03:20:23;;;;;;;9.77;3.90;;;27.70;99.90;;;;;;4213040;28;20059;-68
2022/08/21 03:22:32;;;;;;;8.40;3.90;;;27.70;99.90;;;;;;4213334;28;20032;-69
2022/08/21 03:24:37;;;;;;;10.52;4.00;;;27.60;99.90;;;;;;4213181;28;20747;-67
2022/08/21 03:26:47;;;;;;;9.40;3.63;;;27.70;99.90;;;;;;4211127;28;20075;-68
2022/08/21 03:28:54;;;;;;;8.82;3.72;;;27.70;99.90;;;;;;4212666;28;20138;-68
2022/08/21 03:30:59;;;;;;;4.85;3.15;;;27.70;99.90;;;;;;4211643;28;20131;-69
2022/08/21 03:33:03;;;;;;;7.28;3.38;;;27.70;99.90;;;;;;4212200;28;20102;-69
2022/08/21 03:35:10;;;;;;;10.07;3.38;;;27.70;99.90;;;;;;4212569;28;20043;-66
2022/08/21 03:37:16;;;;;;;6.97;3.60;;;27.70;99.90;;;;;;4212976;28;20047;-65
2022/08/21 03:39:20;;;;;;;9.48;3.90;;;27.70;99.90;;;;;;4210219;28;20051;-65
2022/08/21 03:41:27;;;;;;;9.50;5.50;;;27.80;99.90;;;;;;4191609;28;20041;-66
2022/08/21 03:43:31;;;;;;;10.50;4.60;;;27.70;99.90;;;;;;4212656;28;20516;-66
2022/08/21 03:45:37;;;;;;;9.88;4.75;;;27.80;99.90;;;;;;4212451;28;20067;-66
2022/08/21 03:47:58;;;;;;;7.72;4.68;;;27.80;99.90;;;;;;4208960;28;20044;-65
2022/08/21 03:50:07;;;;;;;5.07;3.97;;;27.90;99.90;;;;;;4210182;28;20136;-66
2022/08/21 03:52:14;;;;;;;9.77;4.10;;;28.00;99.90;;;;;;4212547;28;20202;-65
2022/08/21 03:54:22;;;;;;;9.75;4.15;;;28.20;99.90;;;;;;4209641;28;20121;-66
2022/08/21 03:56:27;;;;;;;9.15;4.13;;;28.30;99.90;;;;;;4212373;28;20040;-66
2022/08/21 03:58:33;;;;;;;9.63;4.78;;;28.40;99.90;;;;;;4210367;28;20074;-66
2022/08/21 04:00:41;;;;;;;8.13;4.50;;;28.50;99.90;;;;;;4210663;28;20069;-65
2022/08/21 04:02:46;;;;;;;7.50;4.30;;;28.50;99.90;;;;;;4211206;28;20048;-65
2022/08/21 04:04:51;;;;;;;6.70;4.00;;;28.60;99.90;;;;;;4209717;28;20044;-66
2022/08/21 04:06:58;;;;;;;8.68;3.60;;;28.70;99.90;;;;;;4211555;28;20080;-64
2022/08/21 04:09:04;;;;;;;6.93;3.40;;;28.70;99.90;;;;;;4210935;28;20414;-66
2022/08/21 04:11:10;;;;;;;7.10;3.88;;;28.80;99.90;;;;;;4211638;28;20040;-65
2022/08/21 04:13:14;;;;;;;6.25;2.88;;;28.80;99.90;;;;;;4209302;28;20055;-67
2022/08/21 04:15:20;;;;;;;7.72;3.78;;;28.80;99.90;;;;;;4211156;28;20040;-66
2022/08/21 04:17:24;;;;;;;7.95;3.15;;;28.80;99.90;;;;;;4211572;28;20044;-68
2022/08/21 04:19:32;;;;;;;7.50;3.42;;;28.80;99.90;;;;;;4208407;28;20551;-68
2022/08/21 04:21:37;;;;;;;6.15;3.33;;;28.80;99.90;;;;;;4211362;28;20048;-66
2022/08/21 04:23:42;;;;;;;5.63;3.00;;;28.80;99.90;;;;;;4211327;28;20043;-64
2022/08/21 04:25:49;;;;;;;8.43;3.47;;;28.70;99.90;;;;;;4202380;28;20055;-63
2022/08/21 04:27:54;;;;;;;8.55;3.80;;;28.60;99.90;;;;;;4208892;28;20040;-64
2022/08/21 04:29:59;;;;;;;8.98;3.28;;;28.60;99.90;;;;;;4206521;28;20048;-65
2022/08/21 04:32:05;;;;;;;6.03;3.75;;;28.50;99.90;;;;;;4211297;28;20058;-64
2022/08/21 04:34:10;;;;;;;7.32;3.50;;;28.60;99.90;;;;;;4210893;28;20115;-65
2022/08/21 04:36:15;;;;;;;7.43;4.20;;;28.70;99.90;;;;;;4210850;28;20060;-65
2022/08/21 04:38:27;;;;;;;5.60;3.25;;;28.80;99.90;;;;;;4209827;28;20075;-64
2022/08/21 04:40:39;;;;;;;8.77;3.58;;;29.00;99.90;;;;;;4208728;28;20116;-64
2022/08/21 04:42:46;;;;;;;6.65;3.53;;;29.10;99.90;;;;;;4211158;28;20884;-63
2022/08/21 04:44:52;;;;;;;7.63;3.40;;;29.20;99.90;;;;;;4211190;28;20044;-64
2022/08/21 04:46:58;;;;;;;6.80;3.30;;;29.30;99.90;;;;;;4208634;28;20039;-64
2022/08/21 04:49:02;;;;;;;7.55;3.58;;;29.30;99.90;;;;;;4211312;28;20066;-65
2022/08/21 04:51:15;;;;;;;6.97;3.20;;;29.40;99.90;;;;;;4210536;28;20040;-63
2022/08/21 04:53:28;;;;;;;9.50;3.80;;;29.40;99.90;;;;;;4207550;28;20050;-63
2022/08/21 04:55:32;;;;;;;9.15;3.80;;;29.50;99.90;;;;;;4192475;28;20052;-64
2022/08/21 04:57:37;;;;;;;10.98;3.60;;;29.50;99.90;;;;;;4211074;28;20044;-63
2022/08/21 04:59:51;;;;;;;6.80;3.35;;;29.60;99.90;;;;;;4208826;28;20047;-64
2022/08/21 05:01:56;;;;;;;7.45;3.90;;;29.70;99.90;;;;;;4210134;28;20117;-65
2022/08/21 05:04:04;;;;;;;9.20;3.42;;;29.80;99.90;;;;;;4208172;28;20040;-64
2022/08/21 05:06:10;;;;;;;5.88;3.25;;;29.80;99.90;;;;;;4058423;28;4292789;-64
2022/08/21 05:08:15;;;;;;;8.70;3.88;;;29.80;99.90;;;;;;4209931;28;20055;-63
2022/08/21 05:10:23;;;;;;;5.78;3.50;;;29.70;99.90;;;;;;4209848;28;20048;-64
2022/08/21 05:12:27;;;;;;;7.78;3.67;;;29.80;99.90;;;;;;4209759;28;20569;-64
2022/08/21 05:14:32;;;;;;;5.88;3.22;;;29.70;99.90;;;;;;4209625;28;20117;-64
2022/08/21 05:16:43;;;;;;;6.60;3.47;;;29.80;99.90;;;;;;4226330;28;20565;-63
2022/08/21 05:18:48;;;;;;;6.75;3.47;;;29.80;99.90;;;;;;4210416;28;20048;-63
2022/08/21 05:20:52;;;;;;;5.32;3.13;;;29.90;99.90;;;;;;4211480;28;20644;-65
2022/08/21 05:22:58;;;;;;;6.25;3.70;;;30.00;99.90;;;;;;4209317;28;20101;-65
2022/08/21 05:25:03;;;;;;;6.75;3.42;;;30.00;99.90;;;;;;4211308;28;20128;-65
2022/08/21 05:27:12;;;;;;;9.20;3.80;;;29.90;99.90;;;;;;4211716;28;20047;-64
2022/08/21 05:29:21;;;;;;;6.45;3.55;;;29.80;99.90;;;;;;4207187;28;20055;-65
2022/08/21 05:31:26;;;;;;;5.35;3.03;;;29.70;99.90;;;;;;4208381;28;20052;-65
2022/08/21 05:33:30;;;;;;;6.63;3.20;;;29.60;99.90;;;;;;4210320;28;20044;-65
2022/08/21 05:35:38;;;;;;;9.75;3.20;;;29.50;99.90;;;;;;4208506;28;20908;-66
2022/08/21 05:37:43;;;;;;;6.88;2.92;;;29.50;99.90;;;;;;4209436;28;20100;-64
2022/08/21 05:39:48;;;;;;;7.82;3.47;;;29.50;99.90;;;;;;4209289;28;20520;-65
2022/08/21 05:42:16;;;;;;;6.72;3.17;;;29.40;99.90;;;;;;4173127;28;20044;-66
2022/08/21 05:44:21;;;;;;;5.13;3.33;;;29.30;99.90;;;;;;4172237;28;20041;-64
2022/08/21 05:46:25;;;;;;;7.53;3.35;;;29.20;99.90;;;;;;4173063;28;20037;-65
2022/08/21 05:48:35;;;;;;;7.78;3.30;;;29.10;99.90;;;;;;4171080;28;20048;-65
2022/08/21 05:50:39;;;;;;;7.30;3.10;;;29.00;99.90;;;;;;4171729;28;20041;-64
2022/08/21 05:52:44;;;;;;;5.18;2.90;;;29.00;99.90;;;;;;4173263;28;20604;-65
2022/08/21 05:54:56;;;;;;;7.70;3.42;;;28.90;99.90;;;;;;4174706;28;20564;-64
2022/08/21 05:57:00;;;;;;;8.20;3.55;;;29.00;99.90;;;;;;4175152;28;20602;-65
2022/08/21 05:59:06;;;;;;;5.65;3.40;;;29.00;99.90;;;;;;4175540;28;20048;-64
2022/08/21 06:01:14;;;;;;;5.85;3.13;;;29.20;99.90;;;;;;4173195;28;20139;-65
2022/08/21 06:03:24;;;;;;;6.22;3.28;;;29.50;99.90;;;;;;4173099;28;20569;-65
2022/08/21 06:05:29;;;;;;;7.70;3.55;;;29.60;99.90;;;;;;4175013;28;20079;-66
2022/08/21 06:07:41;;;;;;;8.52;3.50;;;29.70;99.90;;;;;;4172473;28;20155;-65
2022/08/21 06:09:46;;;;;;;8.88;3.70;;;29.80;99.90;;;;;;4175483;28;20056;-66
2022/08/21 06:11:51;;;;;;;5.95;3.60;;;29.80;99.90;;;;;;4175303;28;20533;-66
2022/08/21 06:13:56;;;;;;;7.35;3.28;;;29.90;99.90;;;;;;4175032;28;20204;-66
2022/08/21 06:16:03;;;;;;;9.15;3.60;;;30.00;99.90;;;;;;4172128;28;20083;-66
2022/08/21 06:18:07;;;;;;;6.53;3.60;;;30.10;99.90;;;;;;4159074;28;20124;-66
2022/08/21 06:20:15;;;;;;;6.65;3.42;;;30.30;99.90;;;;;;4196288;28;20044;-66
2022/08/21 06:22:19;;;;;;;8.23;3.83;;;30.40;99.90;;;;;;4210954;28;20043;-65
2022/08/21 06:24:24;;;;;;;7.47;3.80;;;30.50;99.90;;;;;;4208731;28;20032;-65
2022/08/21 06:26:33;;;;;;;4.43;3.55;;;30.50;99.90;;;;;;4210277;28;20052;-65
2022/08/21 06:28:38;;;;;;;7.30;3.75;;;30.60;99.90;;;;;;4211143;28;20044;-64
2022/08/21 06:30:42;;;;;;;9.40;3.53;;;30.60;99.90;;;;;;4208069;28;20820;-64
2022/08/21 06:32:49;;;;;;;6.72;3.55;;;30.40;99.90;;;;;;4210660;28;20086;-66
2022/08/21 06:34:54;;;;;;;7.93;3.30;;;30.50;99.90;;;;;;4210762;28;20055;-64
2022/08/21 06:36:58;;;;;;;6.30;4.00;;;30.50;99.90;;;;;;4210684;28;20044;-65
2022/08/21 06:39:03;;;;;;;5.82;3.15;;;30.60;99.90;;;;;;4208206;28;20039;-65
2022/08/21 06:41:28;;;;;;;6.07;3.10;;;30.80;99.90;;;;;;4224242;28;20490;-64
2022/08/21 06:43:41;;;;;;;6.15;2.70;;;30.80;99.90;;;;;;4208089;28;20494;-65
2022/08/21 06:45:48;;;;;;;5.82;2.90;;;30.80;99.90;;;;;;4209958;28;20043;-63
2022/08/21 06:47:53;;;;;;;4.55;2.97;;;30.80;99.90;;;;;;4210320;28;20043;-64
2022/08/21 06:50:07;;;;;;;11.38;3.75;;;30.80;99.90;;;;;;4210598;28;20054;-64
2022/08/21 06:52:14;;;;;;;6.43;3.60;;;30.80;99.90;;;;;;4209250;28;20098;-63
2022/08/21 06:54:19;;;;;;;6.82;3.25;;;30.80;99.90;;;;;;4208910;28;20036;-64
2022/08/21 06:56:25;;;;;;;6.82;3.15;;;30.90;99.90;;;;;;4207502;28;20044;-64
2022/08/21 06:58:36;;;;;;;6.57;3.20;;;30.90;99.90;;;;;;4210612;28;20036;-64
2022/08/21 07:00:42;;;;;;;10.35;2.95;;;30.80;99.90;;;;;;4210478;28;20558;-64
2022/08/21 07:02:46;;;;;;;9.52;2.83;;;30.90;99.90;;;;;;4207846;28;20138;-64
2022/08/21 07:04:55;;;;;;;8.00;3.17;;;31.00;99.90;;;;;;4208082;28;20036;-64
2022/08/21 07:07:00;;;;;;;8.15;3.17;;;31.20;99.90;;;;;;4208764;28;20054;-63
2022/08/21 07:09:05;;;;;;;8.32;2.72;;;31.10;99.90;;;;;;4207827;28;20048;-63
2022/08/21 07:11:13;;;;;;;6.13;2.72;;;31.10;99.90;;;;;;4210245;28;20036;-64
2022/08/21 07:13:18;;;;;;;6.15;2.92;;;31.10;99.90;;;;;;4210248;28;20159;-64
2022/08/21 07:15:23;;;;;;;7.53;2.75;;;31.10;99.90;;;;;;4210116;28;20065;-64
2022/08/21 07:17:31;;;;;;;8.02;2.50;;;31.00;99.90;;;;;;4208334;28;20575;-64
2022/08/21 07:19:36;;;;;;;5.05;2.08;;;30.90;99.90;;;;;;4210148;28;20071;-64
2022/08/21 07:21:41;;;;;;;4.72;2.15;;;30.70;99.90;;;;;;4210253;28;20080;-64
2022/08/21 07:23:50;;;;;;;6.32;2.50;;;30.70;99.90;;;;;;4208037;28;20048;-63
2022/08/21 07:25:56;;;;;;;4.68;2.65;;;30.70;99.90;;;;;;4202491;28;20491;-64
2022/08/21 07:28:00;;;;;;;5.03;2.47;;;30.80;99.90;;;;;;4207090;28;20091;-63
2022/08/21 07:30:07;;;;;;;4.40;2.22;;;30.90;99.90;;;;;;4153588;28;20060;-64
2022/08/21 07:32:12;;;;;;;3.40;2.08;;;31.00;99.90;;;;;;4209291;28;20032;-64
2022/08/21 07:34:23;;;;;;;4.72;2.53;;;31.10;99.90;;;;;;4223170;28;20055;-64
2022/08/21 07:36:29;;;;;;;6.38;1.98;;;31.20;99.90;;;;;;4173169;28;20053;-64
2022/08/21 07:38:35;;;;;;;4.40;2.10;;;31.30;99.90;;;;;;4207945;28;20564;-64
2022/08/21 07:40:40;;;;;;;6.10;2.05;;;31.40;99.90;;;;;;4209040;28;20043;-64
2022/08/21 07:42:49;;;;;;;6.72;2.10;;;31.50;99.90;;;;;;4172804;28;20045;-65
2022/08/21 07:44:55;;;;;;;4.72;1.90;;;31.50;99.90;;;;;;4207742;28;20191;-65
2022/08/21 07:47:01;;;;;;;5.15;2.15;;;31.60;99.90;;;;;;4209077;28;20056;-65
2022/08/21 07:49:08;;;;;;;4.63;1.92;;;31.60;99.90;;;;;;4208472;28;20067;-65
2022/08/21 07:51:14;;;;;;;6.63;2.25;;;31.60;99.90;;;;;;4207710;28;20537;-65
2022/08/21 07:53:19;;;;;;;6.07;2.40;;;31.70;99.90;;;;;;4209263;28;20041;-65
2022/08/21 07:55:25;;;;;;;6.57;2.38;;;31.70;99.90;;;;;;4212121;28;20799;-65
2022/08/21 07:57:31;;;;;;;83.43;10.35;;;31.70;99.90;;;;;;4211373;28;20471;-65
2022/08/21 07:59:36;;;;;;;7.57;2.75;;;31.70;99.60;;;;;;4213217;28;20127;-66
2022/08/21 08:01:45;;;;;;;8.38;2.53;;;31.60;99.40;;;;;;4211566;28;20119;-66
2022/08/21 08:03:50;;;;;;;8.52;2.10;;;31.70;99.50;;;;;;4211457;28;20575;-67
2022/08/21 08:05:54;;;;;;;101.10;13.43;;;31.60;99.90;;;;;;4206824;28;20449;-67
2022/08/21 08:08:02;;;;;;;70.93;10.63;;;31.70;99.90;;;;;;4195505;28;20048;-66
2022/08/21 08:10:08;;;;;;;21.27;4.05;;;31.70;99.70;;;;;;4213092;28;20048;-66
2022/08/21 08:12:13;;;;;;;50.10;6.50;;;31.70;99.90;;;;;;4212835;28;20097;-64
2022/08/21 08:14:19;;;;;;;8.93;2.80;;;31.70;99.80;;;;;;4191399;28;20057;-65
2022/08/21 08:16:34;;;;;;;8.48;2.70;;;31.80;99.70;;;;;;4212737;28;20036;-64
2022/08/21 08:18:38;;;;;;;6.15;2.15;;;31.80;98.40;;;;;;4205036;28;20123;-66
2022/08/21 08:20:45;;;;;;;38.08;7.53;;;31.80;98.90;;;;;;4213148;28;20055;-66
2022/08/21 08:22:50;;;;;;;34.42;6.32;;;31.70;99.00;;;;;;4213161;28;20494;-65
2022/08/21 08:24:55;;;;;;;49.20;6.78;;;31.80;99.30;;;;;;4211458;28;20040;-66
2022/08/21 08:27:04;;;;;;;24.13;4.30;;;31.80;98.80;;;;;;4210631;28;20036;-65
2022/08/21 08:29:08;;;;;;;10.95;3.55;;;31.90;99.40;;;;;;4212487;28;20527;-66
2022/08/21 08:31:13;;;;;;;5.18;2.30;;;31.90;98.60;;;;;;4212778;28;20042;-67
2022/08/21 08:33:20;;;;;;;6.72;2.58;;;31.90;98.80;;;;;;4209872;28;20624;-67
2022/08/21 08:35:24;;;;;;;5.63;2.30;;;31.70;97.90;;;;;;4212283;28;20044;-66
2022/08/21 08:37:29;;;;;;;6.05;2.65;;;31.70;98.00;;;;;;4212875;28;20048;-66
2022/08/21 08:39:38;;;;;;;6.05;2.72;;;31.60;98.30;;;;;;4212658;28;20035;-64
2022/08/21 08:41:45;;;;;;;4.35;2.22;;;31.70;98.70;;;;;;4210716;28;20044;-65
2022/08/21 08:43:58;;;;;;;5.95;2.55;;;31.70;98.70;;;;;;4194448;28;20546;-65
2022/08/21 08:46:11;;;;;;;5.30;2.60;;;31.70;98.70;;;;;;4210522;28;20044;-65
2022/08/21 08:48:42;;;;;;;10.00;2.97;;;31.80;99.10;;;;;;4194810;28;20055;-65
2022/08/21 08:50:55;;;;;;;7.80;2.60;;;31.80;99.60;;;;;;4210721;28;20127;-65
2022/08/21 08:53:05;;;;;;;6.05;2.22;;;31.70;99.50;;;;;;4212178;28;20127;-66
2022/08/21 08:55:13;;;;;;;8.18;3.67;;;31.70;99.50;;;;;;4209715;28;20819;-66
2022/08/21 08:57:19;;;;;;;6.95;2.72;;;31.70;99.10;;;;;;4212414;28;20109;-65
2022/08/21 08:59:40;;;;;;;7.60;2.50;;;31.70;99.10;;;;;;4209862;28;20040;-66
2022/08/21 09:01:46;;;;;;;5.50;2.78;;;31.70;99.20;;;;;;4209432;28;20050;-65
2022/08/21 09:03:51;;;;;;;5.55;2.65;;;31.60;98.90;;;;;;4209712;28;20135;-65
2022/08/21 09:06:17;;;;;;;9.48;4.05;;;31.50;99.10;;;;;;4210554;28;20396;-65
2022/08/21 09:08:49;;;;;;;10.85;5.68;;;31.60;99.30;;;;;;4211327;28;20046;-65
2022/08/21 09:11:18;;;;;;;8.13;4.32;;;31.60;99.30;;;;;;4210308;28;20048;-65
2022/08/21 09:13:48;;;;;;;34.20;28.27;;;31.60;99.40;;;;;;4211839;28;20131;-67
2022/08/21 09:16:11;;;;;;;17.60;11.77;;;31.60;99.10;;;;;;4210565;28;20433;-65
2022/08/21 09:18:54;;;;;;;9.95;6.20;;;31.60;99.70;;;;;;4211018;28;20048;-65
2022/08/21 09:21:28;;;;;;;8.20;4.18;;;31.60;98.90;;;;;;4211484;28;20071;-64
2022/08/21 09:23:44;;;;;;;;;;;31.70;99.00;;;;;;4211219;28;20048;-63
2022/08/21 09:26:07;;;;;;;8.18;3.65;;;31.70;99.40;;;;;;4209505;28;20378;-64
2022/08/21 09:28:14;;;;;;;7.57;3.70;;;31.60;99.70;;;;;;4210683;28;20043;-64
2022/08/21 09:30:24;;;;;;;8.95;3.72;;;31.50;99.00;;;;;;4211907;28;20793;-65
2022/08/21 09:32:32;;;;;;;7.47;3.28;;;31.50;99.40;;;;;;4210391;28;20048;-64
2022/08/21 09:34:41;;;;;;;8.35;4.03;;;31.60;99.50;;;;;;4211590;28;20587;-64
2022/08/21 09:36:48;;;;;;;9.10;3.50;;;31.70;99.60;;;;;;4208999;28;20070;-66
2022/08/21 09:38:54;;;;;;;8.70;3.70;;;31.70;99.90;;;;;;4210414;28;20100;-65
2022/08/21 09:41:05;;;;;;;10.45;4.20;;;31.70;99.90;;;;;;4210522;28;20044;-65
2022/08/21 09:43:18;;;;;;;7.07;3.28;;;31.60;99.90;;;;;;4210551;28;20048;-65
2022/08/21 09:45:23;;;;;;;8.25;3.15;;;31.60;99.90;;;;;;4209139;28;20036;-65
2022/08/21 09:47:29;;;;;;;7.70;2.90;;;31.60;99.90;;;;;;4211206;28;20494;-65
2022/08/21 09:49:38;;;;;;;6.75;2.70;;;31.60;99.90;;;;;;4211280;28;20547;-64
2022/08/21 09:51:51;;;;;;;7.70;3.60;;;31.50;99.90;;;;;;4225182;28;20113;-64
2022/08/21 09:54:15;;;;;;;5.07;3.00;;;31.60;99.90;;;;;;4208957;28;20048;-64
2022/08/21 09:59:39;;;;;;;8.43;2.90;;;31.60;99.90;;;;;;4208338;28;20429;-65
2022/08/21 10:01:48;;;;;;;8.63;3.15;;;31.60;99.90;;;;;;4210786;28;20486;-63
2022/08/21 10:04:12;;;;;;;10.43;3.38;;;31.60;99.90;;;;;;4210713;28;20036;-66
2022/08/21 10:06:26;;;;;;;9.48;3.70;;;31.60;99.90;;;;;;4206513;28;20152;-66
2022/08/21 10:08:33;;;;;;;8.88;3.58;;;31.50;99.90;;;;;;4210834;28;20056;-65
2022/08/21 10:10:38;;;;;;;6.45;3.17;;;31.50;99.90;;;;;;4208298;28;20402;-65
2022/08/21 10:12:59;;;;;;;9.65;3.90;;;31.40;99.90;;;;;;4210798;28;20089;-64
2022/08/21 10:15:12;;;;;;;8.27;3.08;;;31.40;99.90;;;;;;4210511;28;20131;-65
2022/08/21 10:17:43;;;;;;;8.00;3.40;;;31.40;99.90;;;;;;4210091;28;20161;-64
2022/08/21 10:20:10;;;;;;;10.68;3.30;;;31.30;99.90;;;;;;4209605;28;20056;-63
2022/08/21 10:22:54;;;;;;;8.70;3.72;;;31.30;99.90;;;;;;4209396;28;20039;-65
2022/08/21 10:25:15;;;;;;;9.77;3.50;;;31.20;99.90;;;;;;4210636;28;20395;-66
2022/08/21 10:27:51;;;;;;;9.32;3.60;;;31.20;99.90;;;;;;4211219;28;20068;-66
2022/08/21 10:30:15;;;;;;;12.23;3.70;;;31.10;99.90;;;;;;4211234;28;20052;-65
2022/08/21 10:32:44;;;;;;;8.77;3.80;;;31.00;99.90;;;;;;4209186;28;20050;-64
2022/08/21 10:35:19;;;;;;;13.52;3.88;;;31.00;99.90;;;;;;4210139;28;20078;-64
2022/08/21 10:37:49;;;;;;;8.52;3.72;;;31.00;99.90;;;;;;4209413;28;20696;-65
2022/08/21 10:40:17;;;;;;;12.70;4.13;;;30.90;99.90;;;;;;4225475;28;20050;-65
2022/08/21 10:43:03;;;;;;;17.40;4.63;;;30.90;99.90;;;;;;4208662;28;20127;-64
2022/08/21 10:45:28;;;;;;;9.15;4.40;;;30.90;99.90;;;;;;4208944;28;20123;-66
2022/08/21 10:47:41;;;;;;;9.50;3.97;;;30.80;99.90;;;;;;4209925;28;20393;-66
2022/08/21 10:50:04;;;;;;;10.30;3.95;;;30.80;99.90;;;;;;4210282;28;20056;-66
2022/08/21 10:52:43;;;;;;;9.50;4.22;;;30.70;99.90;;;;;;4191543;28;20044;-66
2022/08/21 10:54:57;;;;;;;9.10;4.05;;;30.60;99.90;;;;;;4211473;28;20086;-66
2022/08/21 10:57:32;;;;;;;8.73;4.07;;;30.60;99.90;;;;;;4192994;28;20114;-66
2022/08/21 10:59:44;;;;;;;8.95;4.18;;;30.50;99.90;;;;;;4209790;28;20039;-64
2022/08/21 11:02:04;;;;;;;8.43;3.95;;;30.50;99.90;;;;;;4208009;28;20123;-65
2022/08/21 11:04:25;;;;;;;9.43;4.43;;;30.40;99.90;;;;;;4208083;28;20083;-66
2022/08/21 11:06:52;;;;;;;14.05;4.65;;;30.40;99.90;;;;;;4209921;28;20113;-64
2022/08/21 11:09:08;;;;;;;11.07;4.35;;;30.40;99.90;;;;;;4209197;28;20139;-64
2022/08/21 11:11:31;;;;;;;11.30;4.93;;;30.30;99.90;;;;;;4208704;28;20055;-65
2022/08/21 11:13:55;;;;;;;12.07;3.80;;;30.30;99.90;;;;;;4209033;28;20494;-64
2022/08/21 11:16:26;;;;;;;8.13;4.00;;;30.30;99.90;;;;;;4208678;28;20685;-64